Dies ist die Übersicht über die aktuellen Messwerte der DWD-Stationen.

Eine Auf/Abwärtssortierung der Messwerte, ist durch einen Klick auf den gewünschten Messwert im Tabellenkopf möglich (z.B. Klick auf "Temperatur 2m in °C" ändert Sortierung auf/absteigend).

Station letzte Meldung Temperatur 2m in °C Taupunkt 2m in °C Feuchte 2m in % Temperatur 5cm in °C Mittelwind in km/h Spitzenböen in km/h Windrichtung in ° Luftdruck in hpa Sonnenscheindauer in Minuten Niederschlag in mm Sichtweite in km Neuschnee in cm Schneehöhe Gesamt in cm
Aachen-Orsbach 00:00 -00.5 -04.9 72.0 -02.0 15.0 37.0 070 1021 00.0 00.0 38.5 00
Ahaus 00:00 00.6 -00.7 91.0 -01.3 10.0 19.0 040 1023 00.0 00.0 09.7 00
Alfeld 00:00 00.8 -01.5 85.0 -01.0 06.0 13.0 010 1023 00.0 00.0 12.5 00
Altenstadt 00:00 -03.9 -06.2 84.0 14.0 080
Andernach 00:00 01.5 -05.5 60.0 00.9 11.0 19.0 070 1021 00.0 00.0 37.6 00
Angermünde 00:00 00.5 -00.1 96.0 00.1 08.0 12.0 050 1025 00.0 00.0 09.2 00
Arkona 00:00 01.8 00.0 88.0 00.4 06.0 32.0 080 1026 00.0 00.0 33.2 01
Artern 00:00 00.4 -00.6 93.0 00.0 15.0 20.0 060 1023 00.0 00.0 10.7 00
Augsburg 00:00 -01.6 -03.8 85.0 -01.5 10.0 19.0 110 1018 00.0 00.0 09.6 00
Bamberg 00:00 00.1 -05.0 69.0 -00.5 12.0 19.0 080 1020 00.0 00.0 26.6 00
Barth 00:00 -00.2 -01.2 93.0 -01.3 08.0 11.0 110 1026 00.0 00.0 44.2 00
Baruth 00:00 -02.3 -03.5 91.0 -02.7 06.0 14.0 080 1024 00.0 00.0 08.8 00
Belm 00:00 01.4 00.1 91.0 01.4 04.0 14.0 010 1023 00.0 00.0 09.5 00
Bergen 00:00 00.0 -01.0 93.0 04.0 020 1025 10.0
Berlin-Dahlem (FU) 00:00 00.8 -01.6 84.0 07.0 140 1024 20.0 00
Berlin-Schönefeld 00:00 00.3 -01.8 86.0 -00.2 07.0 09.0 080 1025 00.0 00.0 25.0 00
Berlin-Tegel 00:00 01.1 00.1 93.0 00.8 06.0 13.0 040 1025 00.0 00.0 15.0 00
Berlin-Tempelhof 00:00 01.0 -01.7 82.0 00.3 08.0 15.0 110 1025 00.0 00.0
Berus 00:00 -01.2 -05.7 71.0 -01.5 25.0 39.0 050 1018 00.0 00.0 33.0 00
Boizenburg 00:00 01.1 -00.1 92.0 00.4 07.0 13.0 050 1025 00.0 00.0 28.1 00
Boltenhagen 00:00 02.9 00.3 83.0 02.4 21.0 37.0 080 1026 00.0 00.0 35.9 00
Bonn-Roleber 00:00 00.4 -05.0 67.0 -00.1 14.0 27.0 120 1021 00.0 00.0 23.4 00
Braunlage 00:00 -02.8 -03.7 94.0 -01.3 16.0 28.0 070 1023 00.0 00.1 10.7 08
Braunschweig 00:00 01.4 -00.4 88.0 01.1 14.0 21.0 060 1024 00.0 00.0 00
Bremen 00:00 00.6 -00.6 92.0 -00.5 11.0 15.0 050 1025 00.0 00.0 20.0 00
Bremerhaven 00:00 02.4 00.6 88.0 01.8 11.0 19.0 050 1025 00.0 00.0 10.5 00
Bremervörde 00:00 01.8 00.1 88.0 01.2 10.0 17.0 060 1025 00.0 00.0 17.8 00
Brocken 00:00 -06.3 -06.9 96.0 -06.3 41.0 57.0 090 00.0 00.0 37
Büchel (Flugplatz) 00:00 -02.2 -06.2 74.0 18.0 060 1020 06.0
Bückeburg 00:00 01.6 00.7 94.0 14.0 070 1023 08.0
Carlsfeld 00:00 -06.3 -07.5 91.0 -02.7 14.0 24.0 120 00.0 00.0 00.1 28
Celle 00:00 01.3 -01.2 83.0 14.0 050 1024 20.0
Chieming 00:00 -03.1 -05.3 85.0 -00.3 11.0 19.0 070 1018 00.0 00.0 10.3 05
Cottbus 00:00 -00.2 -02.6 84.0 -00.5 08.0 21.0 060 1024 00.0 00.0 11.6 00
Cuxhaven 00:00 02.6 01.1 90.0 02.1 26.0 32.0 080 1026 00.0 00.0 41.8 00
Deuselbach 00:00 -02.3 -07.3 69.0 -02.4 23.0 39.0 070 1020 00.0 00.0 35.1 00
Diepholz 00:00 02.0 00.3 88.0 01.7 10.0 22.0 060 1024 00.0 00.0 14.0 00
Doberlug-Kirchhain 00:00 00.1 -01.8 87.0 -00.4 09.0 16.0 060 1024 00.0 00.0 13.5 00
Dörnick 00:00 00.8 00.1 95.0 00.0 12.0 24.0 060 1026 00.0 00.5 22.1 00
Dresden-Klotzsche 00:00 00.1 -00.9 93.0 -00.1 12.0 16.0 070 1023 00.0 00.0 13.0 00
Düsseldorf 00:00 00.4 -01.4 88.0 00.1 07.0 11.0 040 1022 00.0 00.0 15.0 00
Eisenach 00:00 -01.1 -02.4 91.0 -01.4 17.0 27.0 080 1022 00.0 00.0 05.2 00
Elpersbüttel 00:00 01.9 00.4 90.0 01.4 16.0 27.0 060 1026 00.0 00.0 40.2 00
Emden 00:00 01.9 00.6 91.0 01.4 12.0 17.0 060 1025 00.0 00.0 17.9 00
Erfurt-Weimar 00:00 -01.3 -02.4 92.0 -01.8 07.0 17.0 070 1022 00.0 00.0 10.0 00
Essen-Bredeney 00:00 00.1 -01.0 92.0 -00.5 09.0 18.0 060 1022 00.0 00.0 12.8 00
Faßberg 00:00 -00.2 -01.2 93.0 11.0 070 1025 10.0
Fehmarn 00:00 02.9 -00.1 81.0 02.0 30.0 39.0 060 1027 00.0 00.0 70.0 00
Feldberg/Mecklenburg 00:00 00.5 -02.7 79.0 00.1 09.0 16.0 080 1025 00.0 00.0 18.3 00
Feldberg/Schwarzwald 00:00 -09.6 -10.9 90.0 -01.0 32.0 40.0 110 00.0 00.0 00.0
Feuchtwangen-Heilbronn 00:00 -02.1 -04.9 81.0 -02.2 12.0 21.0 080 1019 00.0 00.0 21.9 01
Fichtelberg 00:00 -08.4 -09.6 91.0 -08.6 36.0 55.0 100 00.0 00.2
Frankfurt/Main 00:00 01.1 -06.0 59.0 00.6 11.0 25.0 050 1020 00.0 00.0 30.0 00
Freiburg 00:00 00.3 -05.5 65.0 -01.3 08.0 17.0 060 1016 00.0 00.0 17.1 00
Freudenstadt 00:00 -04.1 -06.0 87.0 -04.3 13.0 24.0 080 00.0 00.0 10.3 03
Friesoythe-Altenoythe 00:00 00.7 -00.4 92.0 -01.3 13.0 18.0 050 1025 00.0 00.0 18.0 00
Fritzlar (Flugplatz) 00:00 00.7 -05.0 66.0 11.0 090 1022 25.0
Fürstenzell 00:00 -03.8 -05.5 88.0 -05.4 05.0 07.0 080 1020 00.0 00.0 05.4 00
Gardelegen 00:00 00.6 -00.3 94.0 00.2 08.0 17.0 060 1025 00.0 00.0 09.4 00
Garmisch-Partenkirchen 00:00 -11.2 -12.3 92.0 -12.4 02.0 06.0 330 1021 00.0 00.0 35.4 06
Geilenkirchen (Flugplatz) 00:00 00.2 -01.9 86.0 14.0 050 1021 20.0
Geisenheim 00:00 01.2 -05.1 63.0 00.6 11.0 24.0 090 1020 00.0 00.0 39.4 00
Gelbelsee 00:00 -02.2 -05.0 81.0 -02.5 15.0 26.0 080 1019 00.0 00.0 17.3 00
Genthin 00:00 00.6 -00.2 94.0 00.1 07.0 10.0 050 1024 00.0 00.0 09.3 00
Gera-Leumnitz 00:00 -00.8 -03.2 84.0 -01.1 12.0 18.0 070 1022 00.0 00.0 15.7 00
Gießen/Wettenberg 00:00 00.0 -04.1 74.0 -00.3 16.0 23.0 040 1021 00.0 00.0 28.4 00
Glücksburg-Meierwik 00:00 02.2 -00.2 84.0 11.0 060 1027 20.0
Goldberg 00:00 00.6 -00.3 94.0 -00.1 04.0 10.0 350 1025 00.0 00.0 10.1 00
Görlitz 00:00 -00.7 -00.8 99.0 -00.5 14.0 22.0 050 1024 00.0 00.0 00.9 00
Gottfrieding 00:00 -01.1 -04.6 77.0 -01.4 13.0 24.0 100 1019 00.0 00.0 10.4 00
Göttingen 00:00 01.1 -02.4 77.0 00.4 09.0 15.0 060 1023 00.0 00.0 17.3 00
Greifswald 00:00 00.4 -00.1 96.0 -00.1 03.0 06.0 020 1026 00.0 00.0 08.0 00
Greifswalder Oie 00:00 02.5 -02.5 70.0 01.4 07.0 20.0 130 1026 00.0 00.0 58.1 00
Großer Arber 00:00 -09.6 -10.7 92.0 23.0 35.0 090 00.0 00.0 00.0 40
Grünow 00:00 00.5 -01.0 90.0 00.2 06.0 12.0 070 1025 00.0 00.0 12.1 00
Hahn 00:00 -02.4 -06.4 74.0 -02.5 18.0 26.0 080 1020 00.0 00.0 00
Hamburg-Fuhlsbüttel 00:00 01.4 -00.1 90.0 01.1 09.0 18.0 050 1025 00.0 00.0 30.0 00
Hannover 00:00 01.5 00.0 90.0 01.1 15.0 24.0 060 1024 00.0 00.0 15.0 00
Harburg 00:00 -01.9 -05.1 79.0 -02.1 21.0 31.0 090 1019 00.0 00.0 13.1 00
Harzgerode 00:00 -01.4 -02.4 93.0 -01.4 13.0 26.0 090 1023 00.0 00.1 12.0 01
Helgoland 00:00 03.5 01.0 84.0 03.3 1026 00.0 00.0 36.8 00
Hersfeld, Bad 00:00 -01.6 -05.5 75.0 -04.2 06.0 23.0 050 1022 00.0 00.0 14.6 00
Hof 00:00 -03.4 -06.2 81.0 -03.4 16.0 30.0 100 1022 00.0 00.0 14.6 02
Hohenpeißenberg 00:00 -06.0 -06.8 94.0 -05.7 08.0 18.0 050 00.0 00.0 00.9 04
Hoherodskopf/Vogelsberg 00:00 -05.2 -06.4 91.0 -04.8 12.0 28.0 090 1021 00.0 00.0 35.2 01
Hohn 00:00 01.5 00.3 92.0 07.0 060 1027 20.0
Holzdorf (Flugplatz) 00:00 00.0 -02.5 83.0 07.0 000 1024 18.0
Hoyerswerda 00:00 00.0 -01.2 92.0 -00.4 11.0 20.0 080 1024 00.0 00.0 07.0 00
Idar-Oberstein 00:00 -01.5 -06.3 70.0 14.0 060 1020 12.0
Ingolstadt (Flugplatz) 00:00 -00.9 -05.4 72.0 18.0 090 1019 06.0
Itzehoe 00:00 01.4 00.8 96.0 00.8 13.0 23.0 070 1026 00.0 00.0 34.9
Kahler Asten 00:00 -05.1 -06.9 87.0 -02.6 30.0 51.0 100 00.0 00.0 18.4 09
Kaisersbach-Cronhütte 00:00 -01.8 -05.7 75.0 -01.9 12.0 27.0 070 1019 00.0 00.0 15.3 00
Kempten 00:00 -06.0 -08.6 82.0 -05.7 03.0 10.0 170 1018 00.0 00.0 22.5 00
Kiel-Holtenau 00:00 02.4 00.2 85.0 01.4 10.0 21.0 090 1026 00.0 00.0 43.3 00
Kissingen, Bad 00:00 -00.6 -05.5 69.0 -00.9 14.0 24.0 040 1021 00.0 00.0 38.3 00
Kleiner Feldberg/Taunus 00:00 -05.8 -07.1 91.0 -05.6 17.0 41.0 100 00.0 00.0 14.0 02
Klippeneck 00:00 -05.9 -07.2 91.0 -05.3 12.0 31.0 090 00.0 00.0 07.2 04
Koblenz (Falckensteinkaserne) 00:00 01.3 -06.1 58.0 07.0 050 1021
Köln-Bonn 00:00 01.7 -04.9 62.0 01.1 17.0 26.0 090 1021 00.0 00.0 40.0 00
Konstanz 00:00 -01.5 -05.4 75.0 -02.2 12.0 23.0 050 1017 00.0 00.0 21.1 00
Kümmersbruck 00:00 -02.9 -05.8 80.0 07.0 090 1020 20.0
Kyritz 00:00 -00.6 -01.5 94.0 -01.6 08.0 11.0 030 1025 00.0 00.0 10.6 00
Laage (Flugplatz) 00:00 00.5 -00.2 95.0 11.0 060 1026 15.0
Lahr 00:00 -01.5 -03.9 84.0 -02.8 13.0 18.0 030 1017 00.0 00.0 11.1 00
Landsberg (Flugplatz) 00:00
Laupheim 00:00 -01.8 -05.0 79.0 22.0 070 1018 14.0
Lautertal-Oberlauter 00:00 -01.3 -05.6 73.0 -01.3 18.0 32.0 080 1021 00.0 00.0 18.3 01
Lechfeld 00:00 -02.6 -05.3 82.0 14.0 090 1018 15.0
Leck 00:00 01.8 00.0 88.0 00.9 13.0 22.0 050 1027 00.0 00.0 18.7 00
Leinefelde 00:00 -01.0 -02.4 90.0 -01.7 18.0 28.0 080 1022 00.0 00.0 12.8 00
Leipzig-Holzhausen 00:00 00.8 -00.4 92.0 00.6 05.0 14.0 050 1023 00.0 00.0 08.5 00
Leipzig/Halle 00:00 00.4 -00.6 93.0 00.2 12.0 20.0 070 1023 00.0 08.0 00
Leutkirch-Herlazhofen 00:00 -03.3 -06.4 79.0 -03.8 15.0 24.0 060 1017 00.0 00.0 22.6 01
Lichtenhain-Mittelndorf 00:00 -01.1 -02.2 92.0 -01.7 06.0 12.0 110 1023 00.0 00.0 05.1 03
Lindenberg 00:00 -01.5 -03.5 86.0 -03.5 08.0 17.0 080 1025 00.0 00.0 15.0 00
Lingen 00:00 02.0 00.3 88.0 06.0 15.0 060 1024 00.0 00.0
Lippspringe, Bad 00:00 -00.1 -02.5 84.0 -02.7 07.0 14.0 050 1022 00.0 00.0 00
List auf Sylt 00:00 01.9 -01.0 81.0 01.5 22.0 30.0 040 1028 00.0 00.0 37.3 00
Lübeck-Blankensee 00:00 01.1 00.2 94.0 00.2 05.0 08.0 080 1026 00.0 00.0 23.8 00
Lüchow 00:00 01.1 -00.6 88.0 00.0 08.0 15.0 070 1025 00.0 00.0 16.0 00
Lüdenscheid 00:00 -01.3 -03.7 84.0 -01.7 10.0 21.0 070 1021 00.0 00.0 23.3 00
Lügde-Paenbruch 00:00 -00.8 -02.3 90.0 -02.4 08.0 18.0 050 1023 00.0 00.0 07.7 00
Magdeburg 00:00 00.9 -01.4 85.0 -00.1 07.0 17.0 070 1024 00.0 00.0 13.8 00
Mannheim 00:00 01.2 -04.8 64.0 00.5 13.0 24.0 060 1019 00.0 00.0 21.7 00
Manschnow 00:00 00.4 -01.5 87.0 00.1 07.0 10.0 090 1025 00.0 00.0 10.2 00
Marienberg 00:00 -03.9 -05.9 86.0 -00.7 14.0 28.0 100 1023 00.0 00.0 20.9 16
Marienberg, Bad 00:00 -02.9 -06.5 76.0 -03.2 15.0 35.0 100 1021 00.0 00.0 34.6 00
Marnitz 00:00 00.6 -00.1 95.0 -00.1 06.0 09.0 090 1025 00.0 00.0 18.4 00
Meiningen 00:00 -02.4 -06.0 76.0 -02.6 12.0 17.0 050 1022 00.0 00.0 37.1 00
Meßstetten 00:00 -05.0 -06.8 87.0 -06.1 17.0 28.0 080 00.0 00.0 09.8 01
Michelstadt-Vielbrunn 00:00 -02.0 -05.1 79.0 -02.2 13.0 22.0 070 1020 00.0 00.0 25.6 00
Mühlacker 00:00 00.4 -04.0 72.0 -00.1 14.0 22.0 060 1018 00.0 00.0 13.3 00
Mühldorf 00:00 -01.9 -04.1 85.0 -01.7 12.0 27.0 100 1019 00.0 00.0 09.8 01
München-Flughafen 00:00 -02.2 -04.7 83.0 -02.1 15.0 28.0 060 1019 00.0 00.0 15.0 00
München-Stadt 00:00 -02.0 -04.6 82.0 -02.0 11.0 24.0 090 1018 00.0 00.0 14.6 00
Münster/Osnabrück 00:00 01.6 -00.4 87.0 00.8 13.0 22.0 040 1023 00.0 00.0 25.0 00
Neu-Ulrichstein 00:00 -01.3 -05.3 74.0 -01.6 14.0 27.0 030 1021 00.0 00.0 31.4 00
Neuburg/Donau (Flugplatz) 00:00 -00.8 -04.7 75.0 14.0 060 1019 20.0
Neuhaus am Rennweg 00:00 -06.0 -07.4 90.0 -05.2 18.0 30.0 070 00.0 00.0 22.4 05
Neuhütten/Spessart 00:00 -01.2 -06.1 69.0 -01.4 13.0 28.0 080 1020 00.0 00.0 30.9 00
Neuruppin 00:00 00.6 -01.2 88.0 -00.2 08.0 14.0 040 1025 00.0 00.0 10.5
Niederstetten 00:00 -01.9 -04.7 81.0 14.0 080 1019 15.0
Norderney 00:00 02.8 00.8 87.0 02.3 13.0 23.0 090 1025 00.0 00.0 32.6 00
Nordholz (Flugplatz) 00:00 01.6 00.4 92.0 11.0 060 1026 20.0
Nörvenich (Flugplatz) 00:00 00.4 -03.9 73.0 04.0 120 1021 09.0
Nürburg-Barweiler 00:00
Nürnberg 00:00 -00.8 -05.3 72.0 -01.2 09.0 22.0 070 1020 00.0 00.0 20.0 00
Oberstdorf 00:00 -14.8 -16.2 89.0 -05.2 02.0 08.0 180 00.0 00.0 04.0 09
Offenbach-Wetterpark 00:00 01.1 -05.6 61.0 00.4 10.0 19.0 060 1020 00.0 00.0 33.1 00
Öhringen 00:00 00.1 -05.3 67.0 -00.3 16.0 34.0 090 1019 00.0 00.0 25.8 01
Oschatz 00:00 00.7 -00.5 92.0 00.5 10.0 20.0 070 1023 00.0 00.0 05.4 00
Osterfeld 00:00 -00.3 -01.3 93.0 -00.6 17.0 24.0 080 1022 00.0 00.0 11.4 00
Pelzerhaken 00:00 03.0 00.3 82.0 02.2 16.0 32.0 090 1026 00.0 00.0 44.3 00
Plauen 00:00 -03.0 -05.1 85.0 -03.2 03.0 08.0 070 1022 00.0 00.0 08.8 00
Potsdam 00:00 00.2 -02.8 80.0 -00.3 09.0 18.0 090 1024 00.0 00.0 22.0 00
Putbus 00:00 00.6 00.3 98.0 00.2 03.0 10.0 010 1026 00.0 00.0 20.4 00
Quickborn 00:00 01.3 00.0 91.0 00.7 08.0 14.0 040 1026 00.0 00.0 42.4 00
Regensburg 00:00 -01.6 -04.6 80.0 -02.0 11.0 26.0 040 1019 00.0 00.0 16.2 00
Rheine-Bentlage 00:00
Rheinstetten 00:00 01.1 -04.0 69.0 00.7 18.0 26.0 030 1018 00.0 00.0 29.1 00
Rostock-Warnemünde 00:00 01.7 00.3 90.0 00.9 05.0 22.0 090 1026 00.0 00.0 32.2 00
Roth 00:00 -01.4 -05.2 75.0 -01.7 14.0 23.0 080 1020 00.0 09.7 00
Saarbrücken-Ensheim 00:00 -00.7 -05.8 68.0 -01.0 19.0 35.0 060 1018 00.0 00.0 25.0 00
Salzuflen, Bad 00:00 00.4 -01.5 87.0 -01.5 07.0 17.0 070 1023 00.0 00.0 12.7 00
Sankt Peter-Ording 00:00 01.5 00.8 95.0 01.2 13.0 27.0 070 1027 00.0 00.0 00
Schauenburg-Elgershausen 00:00 00.1 -04.6 71.0 -00.2 13.0 23.0 090 1022 00.0 00.0 38.0 00
Schleiz 00:00 -03.0 -04.8 87.0 09.0 18.0 080 1022 00.0 00.0 22.9
Schleswig 00:00 01.0 -00.7 88.0 -00.3 09.0 19.0 050 1027 00.0 00.0 43.9 00
Schleswig-Jagel 00:00 01.3 -00.7 87.0 18.0 050 1027 08.0
Schmücke 00:00 -06.5 -07.6 92.0 -03.4 22.0 42.0 050 00.0 00.0 12.1 09
Schönhagen (Ostseebad) 00:00 03.1 00.2 81.0 02.7 26.0 35.0 070 1027 00.0 00.0 46.4 00
Schwerin 00:00 01.2 00.1 92.0 00.8 09.0 15.0 050 1026 00.0 00.0 12.6 00
Seehausen 00:00 00.0 -01.3 91.0 -00.8 05.0 12.0 110 1025 00.0 00.0 13.3 00
Soltau 00:00 00.3 -01.1 90.0 -00.6 08.0 17.0 050 1025 00.0 00.0 25.1 00
Stötten 00:00 -03.7 -06.0 84.0 -03.9 23.0 33.0 090 1018 00.0 00.0 10.7 04
Straubing 00:00 -02.2 -04.3 86.0 -02.4 06.0 07.0 030 1020 00.0 00.0 15.3 00
Stuttgart (Schnarrenberg) 00:00 -00.1 -04.2 74.0 -00.4 08.0 21.0 080 1018 00.0 00.0 22.1 00
Stuttgart-Echterdingen 00:00 -00.4 -04.2 75.0 -00.8 14.0 21.0 040 1018 00.0 00.0 15.0 00
Tholey 00:00 -01.3 -06.4 68.0 -01.5 23.0 37.0 070 1019 00.0 00.0 22.9 00
Trier-Petrisberg 00:00 -00.3 -06.1 65.0 -00.6 14.0 40.0 060 1020 00.0 00.0 51.9 00
Trollenhagen 00:00 00.4 -00.3 95.0 -00.1 08.0 10.0 050 1026 00.0 00.0
Ueckermünde 00:00 01.2 -01.9 80.0 00.8 05.0 12.0 170 1026 00.0 00.0 26.4 00
UFS Deutsche Bucht 00:00 04.7 02.2 84.0 36.0 090 1026 10.0
UFS TW Ems 00:00 05.5 01.3 74.0 36.0 110 1025 10.0
Ulm-Mähringen 00:00 -02.2 -04.2 86.0 -02.2 17.0 26.0 080 1018 00.0 00.0 12.5 01
Ummendorf 00:00 00.1 -01.3 90.0 -00.1 14.0 20.0 070 1024 00.0 00.0 11.3 00
Waibstadt 00:00 00.2 -05.0 68.0 -00.4 20.0 29.0 050 1019 00.0 00.0 26.7 00
Waldmünchen 00:00 -02.5 -05.4 80.0 -02.5 17.0 33.0 060 1020 00.0 00.0 11.5 00
Warburg 00:00 00.1 -01.7 88.0 -00.2 11.0 18.0 050 1022 00.0 00.0 12.8 00
Waren (Müritz) 00:00 00.8 -00.6 90.0 00.4 05.0 13.0 030 1026 00.0 00.0 25.2 00
Wasserkuppe 00:00 -06.6 -07.7 92.0 -06.6 31.0 55.0 100 00.0 25.0 07
Weiden 00:00 -02.5 -06.3 75.0 -03.3 25.0 42.0 070 1021 00.0 00.0 15.9 00
Weihenstephan-Dürnast 00:00 -02.3 -04.3 86.0 -02.0 15.0 26.0 070 1019 00.0 00.0 08.1 00
Weinbiet 00:00 -02.8 -06.0 79.0 -02.8 23.0 40.0 070 1019 00.0 00.0 09.8 00
Weißenburg-Emetzheim 00:00 -01.5 -05.0 77.0 -01.6 17.0 25.0 080 1019 00.0 00.0 16.4 01
Werl 00:00 00.2 -01.4 89.0 -02.0 06.0 12.0 080 1022 00.0 00.0 10.1 00
Wernigerode 00:00 00.1 -00.6 95.0 00.0 08.0 17.0 090 1023 00.0 00.0 04.3 00
Wiesenburg 00:00 -01.1 -02.5 90.0 -01.4 18.0 26.0 090 1024 00.0 00.0 10.4 00
Wittenberg 00:00 -00.3 -02.6 84.0 -00.7 10.0 18.0 050 1024 00.0 00.0 17.0 00
Wittmundhafen 00:00 02.3 00.2 86.0 11.0 080 1025 15.0
Wunsiedel-Schönbrunn 00:00 -04.2 -06.4 85.0 -04.2 19.0 32.0 080 1021 00.0 00.0 13.1 02
Wunstorf 00:00 01.8 00.0 88.0 14.0 070 1024 09.0
Würzburg 00:00 -00.3 -05.0 71.0 -00.6 15.0 28.0 070 1020 00.0 00.0 15.8 00
Zinnwald-Georgenfeld 00:00 -05.6 -06.3 95.0 -00.5 19.0 29.0 120 00.0 00.0 00.3 31
Zugspitze 00:00 -16.0 -24.9 46.0 04.0 09.0 330 00.0 75.0